Time,TemperatureF,DewpointF,PressureIn,WindDirection,WindDirectionDegrees,WindSpeedMPH,WindSpeedGustMPH,Humidity,HourlyPrecipIn,Conditions,Clouds,dailyrainin,SoftwareType,DateUTC
2013-01-15 00:09:00,-2.7,-9.0,25.82,West,270,6.0,7.0,76,0.00,,,0.00,weatherlink.com 1.10,2013-01-15 07:09:00,
2013-01-15 00:24:00,-2.0,-8.0,25.81,WNW,285,6.0,10.0,74,0.00,,,0.00,weatherlink.com 1.10,2013-01-15 07:24:00,
2013-01-15 00:39:00,-2.6,-9.0,25.80,WNW,290,6.0,11.0,73,0.00,,,0.00,weatherlink.com 1.10,2013-01-15 07:39:00,
2013-01-15 00:54:00,-1.1,-8.0,25.80,West,274,8.0,10.0,74,0.00,,,0.00,weatherlink.com 1.10,2013-01-15 07:54:00,
2013-01-15 01:09:00,-1.8,-8.0,25.80,WSW,257,5.0,8.0,74,0.00,,,0.00,weatherlink.com 1.10,2013-01-15 08:09:00,
2013-01-15 01:24:00,-2.1,-9.0,25.80,NW,304,10.0,12.0,74,0.00,,,0.00,weatherlink.com 1.10,2013-01-15 08:24:00,
2013-01-15 01:39:00,-0.8,-8.0,25.80,West,266,5.0,9.0,73,0.00,,,0.00,weatherlink.com 1.10,2013-01-15 08:39:00,
2013-01-15 01:55:00,-1.2,-8.0,25.80,WNW,283,6.0,10.0,73,0.00,,,0.00,weatherlink.com 1.10,2013-01-15 08:55:00,
2013-01-15 02:10:00,-2.7,-9.0,25.80,West,281,3.0,7.0,73,0.00,,,0.00,weatherlink.com 1.10,2013-01-15 09:10:00,
2013-01-15 02:25:00,-2.7,-9.0,25.80,WNW,297,6.0,7.0,74,0.00,,,0.00,weatherlink.com 1.10,2013-01-15 09:25:00,
2013-01-15 02:40:00,-3.5,-10.0,25.80,WNW,290,7.0,8.0,74,0.00,,,0.00,weatherlink.com 1.10,2013-01-15 09:40:00,
2013-01-15 02:55:00,-3.2,-10.0,25.79,WNW,290,6.0,10.0,74,0.00,,,0.00,weatherlink.com 1.10,2013-01-15 09:55:00,
2013-01-15 03:10:00,-3.7,-10.0,25.78,West,265,7.0,10.0,73,0.00,,,0.00,weatherlink.com 1.10,2013-01-15 10:10:00,
2013-01-15 03:25:00,-3.6,-10.0,25.78,WNW,288,7.0,8.0,75,0.00,,,0.00,weatherlink.com 1.10,2013-01-15 10:25:00,
2013-01-15 03:40:00,-2.7,-9.0,25.78,NW,305,5.0,10.0,74,0.00,,,0.00,weatherlink.com 1.10,2013-01-15 10:40:00,
2013-01-15 03:55:00,-2.4,-9.0,25.78,West,269,4.0,8.0,73,0.00,,,0.00,weatherlink.com 1.10,2013-01-15 10:55:00,
2013-01-15 04:10:00,-3.2,-10.0,25.79,WNW,287,4.0,8.0,74,0.00,,,0.00,weatherlink.com 1.10,2013-01-15 11:10:00,
2013-01-15 04:25:00,-3.3,-10.0,25.79,West,276,4.0,8.0,73,0.00,,,0.00,weatherlink.com 1.10,2013-01-15 11:25:00,
2013-01-15 04:40:00,-2.3,-8.0,25.78,WNW,295,4.0,8.0,75,0.00,,,0.00,weatherlink.com 1.10,2013-01-15 11:40:00,
2013-01-15 04:55:00,0.2,-6.0,25.78,WNW,287,5.0,11.0,74,0.00,,,0.00,weatherlink.com 1.10,2013-01-15 11:55:00,
2013-01-15 05:11:00,0.2,-7.0,25.77,West,280,7.0,11.0,73,0.00,,,0.00,weatherlink.com 1.10,2013-01-15 12:11:00,
2013-01-15 05:26:00,0.1,-7.0,25.77,West,277,7.0,12.0,72,0.00,,,0.00,weatherlink.com 1.10,2013-01-15 12:26:00,
2013-01-15 05:41:00,1.0,-6.0,25.77,West,276,6.0,12.0,72,0.00,,,0.00,weatherlink.com 1.10,2013-01-15 12:41:00,
2013-01-15 05:56:00,1.7,-6.0,25.77,NW,305,9.0,12.0,71,0.00,,,0.00,weatherlink.com 1.10,2013-01-15 12:56:00,
2013-01-15 06:11:00,1.5,-6.0,25.77,West,267,4.0,9.0,71,0.00,,,0.00,weatherlink.com 1.10,2013-01-15 13:11:00,
2013-01-15 06:26:00,1.1,-6.0,25.77,West,274,7.0,11.0,72,0.00,,,0.00,weatherlink.com 1.10,2013-01-15 13:26:00,
2013-01-15 06:41:00,1.9,-6.0,25.77,West,270,4.0,11.0,70,0.00,,,0.00,weatherlink.com 1.10,2013-01-15 13:41:00,
2013-01-15 06:56:00,2.5,-4.0,25.77,NW,305,8.0,10.0,73,0.00,,,0.00,weatherlink.com 1.10,2013-01-15 13:56:00,
2013-01-15 07:11:00,5.9,-2.0,25.77,WNW,293,8.0,14.0,70,0.00,,,0.00,weatherlink.com 1.10,2013-01-15 14:11:00,
2013-01-15 07:26:00,7.4,-2.0,25.77,WNW,298,11.0,16.0,66,0.00,,,0.00,weatherlink.com 1.10,2013-01-15 14:26:00,
2013-01-15 07:41:00,8.1,-1.0,25.76,WNW,293,8.0,14.0,67,0.00,,,0.00,weatherlink.com 1.10,2013-01-15 14:41:00,
2013-01-15 07:56:00,8.5,0.0,25.77,WNW,302,12.0,18.0,67,0.00,,,0.00,weatherlink.com 1.10,2013-01-15 14:56:00,
2013-01-15 08:11:00,8.2,0.0,25.77,WNW,289,13.0,18.0,68,0.00,,,0.00,weatherlink.com 1.10,2013-01-15 15:11:00,
2013-01-15 08:26:00,8.8,1.0,25.77,WNW,284,5.0,12.0,70,0.00,,,0.00,weatherlink.com 1.10,2013-01-15 15:26:00,
2013-01-15 08:42:00,10.2,2.0,25.79,West,277,5.0,11.0,70,0.00,,,0.00,weatherlink.com 1.10,2013-01-15 15:42:00,
2013-01-15 08:57:00,12.5,3.0,25.78,West,281,8.0,10.0,66,0.00,,,0.00,weatherlink.com 1.10,2013-01-15 15:57:00,
2013-01-15 09:12:00,13.7,4.0,25.78,SW,232,8.0,13.0,64,0.00,,,0.00,weatherlink.com 1.10,2013-01-15 16:12:00,
2013-01-15 09:27:00,14.3,4.0,25.78,West,281,8.0,12.0,65,0.00,,,0.00,weatherlink.com 1.10,2013-01-15 16:27:00,
2013-01-15 09:42:00,15.4,6.0,25.78,WSW,256,4.0,10.0,66,0.00,,,0.00,weatherlink.com 1.10,2013-01-15 16:42:00,
2013-01-15 09:57:00,17.4,8.0,25.77,WSW,248,7.0,9.0,66,0.00,,,0.00,weatherlink.com 1.10,2013-01-15 16:57:00,
2013-01-15 10:12:00,19.1,11.0,25.77,NW,304,15.0,15.0,71,0.00,,,0.00,weatherlink.com 1.10,2013-01-15 17:12:00,
2013-01-15 10:27:00,23.7,12.0,25.77,WNW,302,13.0,25.0,60,0.00,,,0.00,weatherlink.com 1.10,2013-01-15 17:27:00,
2013-01-15 10:43:00,24.3,12.0,25.77,NW,310,9.0,20.0,60,0.00,,,0.00,weatherlink.com 1.10,2013-01-15 17:43:00,
2013-01-15 10:57:00,24.2,12.0,25.75,NW,313,15.0,19.0,61,0.00,,,0.00,weatherlink.com 1.10,2013-01-15 17:57:00,
2013-01-15 11:12:00,24.3,12.0,25.75,NW,305,16.0,20.0,61,0.00,,,0.00,weatherlink.com 1.10,2013-01-15 18:12:00,
2013-01-15 11:27:00,24.6,13.0,25.74,NW,308,14.0,22.0,61,0.00,,,0.00,weatherlink.com 1.10,2013-01-15 18:27:00,
2013-01-15 11:42:00,25.3,13.0,25.74,WNW,293,14.0,22.0,60,0.00,,,0.00,weatherlink.com 1.10,2013-01-15 18:42:00,
2013-01-15 11:58:00,25.9,14.0,25.75,NW,319,11.0,25.0,62,0.00,,,0.00,weatherlink.com 1.10,2013-01-15 18:58:00,
2013-01-15 12:13:00,26.0,15.0,25.74,NW,308,10.0,26.0,63,0.00,,,0.00,weatherlink.com 1.10,2013-01-15 19:13:00,
2013-01-15 12:28:00,26.4,15.0,25.73,WNW,300,16.0,24.0,63,0.00,,,0.00,weatherlink.com 1.10,2013-01-15 19:28:00,
2013-01-15 12:43:00,27.1,16.0,25.73,NW,307,10.0,24.0,63,0.00,,,0.00,weatherlink.com 1.10,2013-01-15 19:43:00,
2013-01-15 12:58:00,28.0,17.0,25.72,WNW,302,15.0,22.0,63,0.00,,,0.00,weatherlink.com 1.10,2013-01-15 19:58:00,
2013-01-15 13:13:00,28.8,18.0,25.72,WNW,300,18.0,24.0,64,0.00,,,0.00,weatherlink.com 1.10,2013-01-15 20:13:00,
2013-01-15 13:28:00,28.7,19.0,25.72,NW,308,12.0,25.0,67,0.00,,,0.00,weatherlink.com 1.10,2013-01-15 20:28:00,
2013-01-15 13:43:00,29.2,19.0,25.72,WNW,299,13.0,20.0,67,0.00,,,0.00,weatherlink.com 1.10,2013-01-15 20:43:00,
2013-01-15 13:58:00,29.9,20.0,25.73,WNW,290,14.0,24.0,67,0.00,,,0.00,weatherlink.com 1.10,2013-01-15 20:58:00,
2013-01-15 14:13:00,30.1,20.0,25.73,NW,325,11.0,21.0,66,0.00,,,0.00,weatherlink.com 1.10,2013-01-15 21:13:00,
2013-01-15 14:28:00,29.2,19.0,25.73,NW,305,9.0,20.0,67,0.00,,,0.00,weatherlink.com 1.10,2013-01-15 21:28:00,
2013-01-15 14:43:00,28.7,19.0,25.74,WNW,284,13.0,18.0,68,0.00,,,0.00,weatherlink.com 1.10,2013-01-15 21:43:00,
2013-01-15 14:58:00,28.1,20.0,25.73,NW,310,7.0,15.0,71,0.00,,,0.00,weatherlink.com 1.10,2013-01-15 21:58:00,
2013-01-15 15:13:00,29.5,22.0,25.73,WNW,297,13.0,14.0,72,0.00,,,0.00,weatherlink.com 1.10,2013-01-15 22:13:00,
2013-01-15 15:29:00,31.5,23.0,25.73,WNW,295,10.0,20.0,70,0.00,,,0.00,weatherlink.com 1.10,2013-01-15 22:29:00,
2013-01-15 15:44:00,31.1,23.0,25.74,NW,312,9.0,17.0,72,0.00,,,0.00,weatherlink.com 1.10,2013-01-15 22:44:00,
2013-01-15 15:59:00,31.1,23.0,25.74,NW,308,13.0,19.0,73,0.00,,,0.00,weatherlink.com 1.10,2013-01-15 22:59:00,
2013-01-15 16:14:00,30.6,23.0,25.74,NW,304,8.0,14.0,73,0.00,,,0.00,weatherlink.com 1.10,2013-01-15 23:14:00,
2013-01-15 16:29:00,30.2,23.0,25.74,WNW,302,13.0,15.0,75,0.00,,,0.00,weatherlink.com 1.10,2013-01-15 23:29:00,
2013-01-15 16:44:00,29.5,25.0,25.74,NW,312,12.0,18.0,82,0.00,,,0.00,weatherlink.com 1.10,2013-01-15 23:44:00,
2013-01-15 16:59:00,29.1,25.0,25.74,WNW,300,13.0,19.0,85,0.00,,,0.00,weatherlink.com 1.10,2013-01-15 23:59:00,
2013-01-15 17:14:00,29.0,25.0,25.75,WNW,302,11.0,14.0,84,0.00,,,0.00,weatherlink.com 1.10,2013-01-16 00:14:00,
2013-01-15 17:29:00,29.2,24.0,25.74,West,272,9.0,20.0,82,0.00,,,0.00,weatherlink.com 1.10,2013-01-16 00:29:00,
2013-01-15 17:44:00,29.2,25.0,25.73,WNW,302,11.0,17.0,83,0.00,,,0.00,weatherlink.com 1.10,2013-01-16 00:44:00,
2013-01-15 17:59:00,29.6,24.0,25.73,NW,308,14.0,20.0,81,0.00,,,0.00,weatherlink.com 1.10,2013-01-16 00:59:00,
2013-01-15 18:14:00,30.2,24.0,25.73,NW,316,16.0,20.0,79,0.00,,,0.00,weatherlink.com 1.10,2013-01-16 01:14:00,
2013-01-15 18:29:00,29.8,25.0,25.74,WNW,285,11.0,22.0,82,0.00,,,0.00,weatherlink.com 1.10,2013-01-16 01:29:00,
2013-01-15 18:45:00,29.7,25.0,25.75,WNW,289,11.0,18.0,83,0.00,,,0.00,weatherlink.com 1.10,2013-01-16 01:45:00,
2013-01-15 19:00:00,30.0,25.0,25.75,WNW,290,10.0,18.0,82,0.00,,,0.00,weatherlink.com 1.10,2013-01-16 02:00:00,
2013-01-15 19:30:00,30.7,24.0,25.75,NW,305,10.0,18.0,77,0.00,,,0.00,weatherlink.com 1.10,2013-01-16 02:30:00,
2013-01-15 19:45:00,30.6,24.0,25.75,NW,311,10.0,16.0,77,0.00,,,0.00,weatherlink.com 1.10,2013-01-16 02:45:00,
2013-01-15 20:00:00,30.0,26.0,25.75,NW,307,10.0,16.0,84,0.00,,,0.00,weatherlink.com 1.10,2013-01-16 03:00:00,
2013-01-15 20:15:00,29.8,26.0,25.75,NW,313,8.0,17.0,85,0.00,,,0.00,weatherlink.com 1.10,2013-01-16 03:15:00,
2013-01-15 20:30:00,29.9,26.0,25.75,WNW,299,14.0,19.0,86,0.00,,,0.00,weatherlink.com 1.10,2013-01-16 03:30:00,
2013-01-15 20:45:00,30.6,26.0,25.75,NW,305,8.0,16.0,83,0.00,,,0.00,weatherlink.com 1.10,2013-01-16 03:45:00,
2013-01-15 21:00:00,31.0,26.0,25.75,WNW,293,11.0,18.0,82,0.00,,,0.00,weatherlink.com 1.10,2013-01-16 04:00:00,
2013-01-15 21:15:00,31.4,26.0,25.74,WNW,297,13.0,22.0,79,0.00,,,0.00,weatherlink.com 1.10,2013-01-16 04:15:00,
2013-01-15 21:30:00,31.2,25.0,25.73,NW,304,14.0,28.0,79,0.00,,,0.00,weatherlink.com 1.10,2013-01-16 04:30:00,
2013-01-15 21:45:00,29.2,25.0,25.74,NW,305,16.0,17.0,84,0.00,,,0.00,weatherlink.com 1.10,2013-01-16 04:45:00,
2013-01-15 22:00:00,29.4,26.0,25.74,WNW,300,16.0,20.0,85,0.00,,,0.00,weatherlink.com 1.10,2013-01-16 05:00:00,
2013-01-15 22:15:00,29.7,25.0,25.74,WNW,296,14.0,18.0,84,0.00,,,0.00,weatherlink.com 1.10,2013-01-16 05:15:00,
2013-01-15 22:30:00,29.8,26.0,25.73,NW,304,13.0,17.0,84,0.00,,,0.00,weatherlink.com 1.10,2013-01-16 05:30:00,
2013-01-15 22:46:00,30.0,26.0,25.73,WNW,302,13.0,17.0,85,0.00,,,0.00,weatherlink.com 1.10,2013-01-16 05:46:00,
2013-01-15 23:01:00,30.1,26.0,25.74,West,278,8.0,15.0,84,0.00,,,0.00,weatherlink.com 1.10,2013-01-16 06:01:00,
2013-01-15 23:16:00,30.3,26.0,25.74,WNW,283,12.0,15.0,83,0.00,,,0.00,weatherlink.com 1.10,2013-01-16 06:16:00,
2013-01-15 23:31:00,30.4,25.0,25.74,NW,309,14.0,19.0,80,0.00,,,0.00,weatherlink.com 1.10,2013-01-16 06:31:00,
2013-01-15 23:46:00,32.0,26.0,25.74,WNW,288,16.0,20.0,77,0.00,,,0.00,weatherlink.com 1.10,2013-01-16 06:46:00,